createdAt,value
2023-03-22T00:00:44.154Z,97048.91
2023-03-22T00:02:48.143Z,97044.44
2023-03-22T00:04:50.756Z,97048.91
2023-03-22T00:06:53.432Z,97049.69
2023-03-22T00:08:56.412Z,97050.63
2023-03-22T00:10:58.968Z,97046.47
2023-03-22T00:13:02.019Z,97054.44
2023-03-22T00:15:05.033Z,97049.00
2023-03-22T00:17:07.629Z,97045.69
2023-03-22T00:19:11.539Z,97053.44
2023-03-22T00:21:15.760Z,97050.91
2023-03-22T00:23:18.527Z,97048.44
2023-03-22T00:25:21.081Z,97052.81
2023-03-22T00:27:23.654Z,97051.91
2023-03-22T00:29:26.225Z,97051.06
2023-03-22T00:31:28.865Z,97057.28
2023-03-22T00:33:33.420Z,97045.19
2023-03-22T00:35:37.397Z,97051.34
2023-03-22T00:37:40.236Z,97045.44
2023-03-22T00:39:42.969Z,97045.50
2023-03-22T00:41:45.568Z,97043.78
2023-03-22T00:43:48.836Z,97036.09
2023-03-22T00:45:51.423Z,97037.06
2023-03-22T00:47:54.081Z,97038.72
2023-03-22T00:49:56.753Z,97032.72
2023-03-22T00:52:00.692Z,97027.34
2023-03-22T00:54:06.081Z,97024.25
2023-03-22T00:56:09.638Z,97023.06
2023-03-22T00:58:15.280Z,97019.59
2023-03-22T01:00:18.629Z,97013.81
2023-03-22T01:02:21.219Z,97010.41
2023-03-22T01:04:28.846Z,97017.63
2023-03-22T01:06:31.751Z,97016.91
2023-03-22T01:08:39.063Z,97014.47
2023-03-22T01:10:43.337Z,97012.72
2023-03-22T01:12:46.393Z,97001.56
2023-03-22T01:14:48.992Z,97002.50
2023-03-22T01:16:51.717Z,97000.94
2023-03-22T01:18:54.378Z,96998.63
2023-03-22T01:20:56.980Z,97002.84
2023-03-22T01:22:59.722Z,96998.72
2023-03-22T01:25:03.865Z,96996.91
2023-03-22T01:27:07.151Z,96997.19
2023-03-22T01:29:10.192Z,96992.81
2023-03-22T01:31:12.867Z,96996.66
2023-03-22T01:33:15.652Z,96987.72
2023-03-22T01:35:18.344Z,96985.59
2023-03-22T01:37:21.955Z,96984.25
2023-03-22T01:39:24.568Z,96985.88
2023-03-22T01:41:28.555Z,96987.69
2023-03-22T01:43:31.160Z,96983.53
2023-03-22T01:45:45.788Z,96982.16
2023-03-22T01:47:54.999Z,96982.06
2023-03-22T01:50:00.772Z,96973.50
2023-03-22T01:52:10.547Z,96971.81
2023-03-22T01:54:19.258Z,96977.16
2023-03-22T01:56:24.611Z,96976.59
2023-03-22T01:58:28.686Z,96968.94
2023-03-22T02:00:31.938Z,96967.31
2023-03-22T02:02:34.858Z,96963.94
2023-03-22T02:04:39.353Z,96959.75
2023-03-22T02:06:42.739Z,96960.63
2023-03-22T02:08:45.434Z,96953.72
2023-03-22T02:10:48.060Z,96953.44
2023-03-22T02:13:05.293Z,96948.94
2023-03-22T02:15:13.423Z,96950.19
2023-03-22T02:17:27.606Z,96955.47
2023-03-22T02:20:05.683Z,96960.16
2023-03-22T02:22:25.884Z,96960.19
2023-03-22T02:24:56.210Z,96962.09
2023-03-22T02:27:21.850Z,96955.09
2023-03-22T02:29:33.010Z,96952.34
2023-03-22T02:31:59.312Z,96954.28
2023-03-22T02:34:27.742Z,96946.50
2023-03-22T02:36:42.829Z,96949.31
2023-03-22T02:39:19.832Z,96944.22
2023-03-22T02:41:31.967Z,96945.19
2023-03-22T02:43:39.102Z,96938.38
2023-03-22T02:45:47.971Z,96943.50
2023-03-22T02:47:57.284Z,96940.97
2023-03-22T02:50:07.044Z,96945.25
2023-03-22T02:52:17.269Z,96947.66
2023-03-22T02:54:26.289Z,96940.63
2023-03-22T02:56:33.598Z,96945.84
2023-03-22T02:58:40.202Z,96945.78
2023-03-22T03:00:45.122Z,96943.72
2023-03-22T03:02:51.771Z,96948.81
2023-03-22T03:04:56.720Z,96949.97
2023-03-22T03:07:03.828Z,96940.38
2023-03-22T03:09:07.254Z,96940.38
2023-03-22T03:11:11.697Z,96941.25
2023-03-22T03:13:16.247Z,96946.38
2023-03-22T03:15:21.176Z,96938.47
2023-03-22T03:17:39.439Z,96939.59
2023-03-22T03:19:51.243Z,96940.75
2023-03-22T03:21:57.348Z,96941.03
2023-03-22T03:24:14.335Z,96941.78
2023-03-22T03:26:25.314Z,96943.81
2023-03-22T03:28:38.353Z,96951.69
2023-03-22T03:30:48.339Z,96952.56
2023-03-22T03:32:54.507Z,96942.19
2023-03-22T03:35:03.478Z,96953.38
2023-03-22T03:37:10.468Z,96952.63
2023-03-22T03:39:15.993Z,96953.59
2023-03-22T03:41:23.610Z,96957.13
2023-03-22T03:43:26.865Z,96952.00
2023-03-22T03:45:30.601Z,96964.44
2023-03-22T03:47:33.452Z,96963.84
2023-03-22T03:49:36.902Z,96957.31
2023-03-22T03:51:48.637Z,96968.94
2023-03-22T03:53:51.225Z,96964.81
2023-03-22T03:55:53.797Z,96969.19
2023-03-22T03:57:57.685Z,96975.50
2023-03-22T04:00:00.348Z,96967.84
2023-03-22T04:02:02.959Z,96974.78
2023-03-22T04:04:05.630Z,96971.38
2023-03-22T04:06:09.823Z,96981.72
2023-03-22T04:08:12.392Z,96981.84
2023-03-22T04:10:16.966Z,96975.78
2023-03-22T04:12:19.548Z,96969.91
2023-03-22T04:14:24.157Z,96967.38
2023-03-22T04:16:26.784Z,96967.53
2023-03-22T04:18:30.180Z,96970.25
2023-03-22T04:20:32.764Z,96971.16
2023-03-22T04:22:38.357Z,96973.78
2023-03-22T04:24:41.189Z,96976.44
2023-03-22T04:26:43.763Z,96973.88
2023-03-22T04:28:46.346Z,96973.94
2023-03-22T04:30:51.914Z,96968.72
2023-03-22T04:32:54.584Z,96967.09
2023-03-22T04:34:57.163Z,96966.38
2023-03-22T04:37:02.444Z,96967.25
2023-03-22T04:39:06.914Z,96969.91
2023-03-22T04:41:09.567Z,96967.31
2023-03-22T04:43:13.723Z,96967.25
2023-03-22T04:45:16.588Z,96957.28
2023-03-22T04:47:20.588Z,96954.75
2023-03-22T04:49:23.376Z,96953.94
2023-03-22T04:51:27.079Z,96948.75
2023-03-22T04:53:29.820Z,96952.41
2023-03-22T04:55:34.137Z,96953.34
2023-03-22T04:57:36.899Z,96948.88
2023-03-22T04:59:39.480Z,96947.19
2023-03-22T05:01:42.645Z,96954.03
2023-03-22T05:03:47.475Z,96949.00
2023-03-22T05:05:54.666Z,96955.16
2023-03-22T05:07:57.302Z,96947.41
2023-03-22T05:09:59.906Z,96940.28
2023-03-22T05:12:02.478Z,96938.34
2023-03-22T05:14:05.471Z,96937.00
2023-03-22T05:16:09.851Z,96935.31
2023-03-22T05:18:14.341Z,96926.00
2023-03-22T05:20:18.300Z,96925.25
2023-03-22T05:22:22.453Z,96925.44
2023-03-22T05:24:25.260Z,96918.63
2023-03-22T05:26:28.438Z,96912.69
2023-03-22T05:28:31.876Z,96921.47
2023-03-22T05:30:34.731Z,96920.63
2023-03-22T05:32:37.553Z,96915.41
2023-03-22T05:34:42.803Z,96919.75
2023-03-22T05:36:51.472Z,96921.69
2023-03-22T05:38:54.060Z,96919.09
2023-03-22T05:40:56.617Z,96913.81
2023-03-22T05:42:59.229Z,96918.91
2023-03-22T05:45:01.918Z,96918.03
2023-03-22T05:47:06.608Z,96917.97
2023-03-22T05:49:11.131Z,96911.81
2023-03-22T05:51:17.737Z,96907.38
2023-03-22T05:53:21.700Z,96914.28
2023-03-22T05:55:24.591Z,96913.38
2023-03-22T05:57:29.912Z,96917.69
2023-03-22T05:59:32.610Z,96915.78
2023-03-22T06:01:35.328Z,96913.03
2023-03-22T06:03:38.397Z,96907.84
2023-03-22T06:05:41.360Z,96911.25
2023-03-22T06:07:44.330Z,96910.44
2023-03-22T06:09:49.475Z,96912.94
2023-03-22T06:11:52.187Z,96911.25
2023-03-22T06:13:54.729Z,96913.84
2023-03-22T06:16:00.395Z,96908.66
2023-03-22T06:18:03.183Z,96912.94
2023-03-22T06:20:09.871Z,96921.47
2023-03-22T06:22:12.594Z,96915.38
2023-03-22T06:24:15.299Z,96913.59
2023-03-22T06:26:19.203Z,96918.66
2023-03-22T06:28:21.776Z,96916.72
2023-03-22T06:30:24.719Z,96921.06
2023-03-22T06:32:27.618Z,96919.25
2023-03-22T06:34:30.309Z,96911.34
2023-03-22T06:36:33.119Z,96913.94
2023-03-22T06:38:35.720Z,96913.06
2023-03-22T06:40:38.633Z,96922.59
2023-03-22T06:42:42.855Z,96926.81
2023-03-22T06:44:45.456Z,96928.47
2023-03-22T06:46:48.531Z,96924.84
2023-03-22T06:48:51.112Z,96939.59
2023-03-22T06:50:53.658Z,96945.66
2023-03-22T06:52:56.397Z,96945.66
2023-03-22T06:54:58.963Z,96945.34
2023-03-22T06:57:01.571Z,96942.53
2023-03-22T06:59:05.530Z,96949.63
2023-03-22T07:01:08.215Z,96952.22
2023-03-22T07:03:10.889Z,96952.09
2023-03-22T07:05:13.496Z,96951.22
2023-03-22T07:07:16.284Z,96951.00
2023-03-22T07:09:19.062Z,96952.00
2023-03-22T07:11:22.861Z,96953.69
2023-03-22T07:13:25.618Z,96953.47
2023-03-22T07:15:29.505Z,96945.00
2023-03-22T07:17:32.131Z,96940.59
2023-03-22T07:19:34.800Z,96939.75
2023-03-22T07:21:37.394Z,96949.97
2023-03-22T07:23:39.921Z,96947.38
2023-03-22T07:25:42.495Z,96947.63
2023-03-22T07:27:45.665Z,96951.97
2023-03-22T07:29:48.331Z,96940.66
2023-03-22T07:31:52.289Z,96949.59
2023-03-22T07:33:54.892Z,96942.81
2023-03-22T07:35:57.557Z,96951.47
2023-03-22T07:38:00.870Z,96955.09
2023-03-22T07:40:05.299Z,96950.19
2023-03-22T07:42:07.957Z,96960.91
2023-03-22T07:44:17.635Z,96956.31
2023-03-22T07:46:20.705Z,96961.88
2023-03-22T07:48:25.280Z,96959.59
2023-03-22T07:50:27.865Z,96958.78
2023-03-22T07:52:30.548Z,96950.97
2023-03-22T07:54:34.491Z,96954.25
2023-03-22T07:56:37.700Z,96957.69
2023-03-22T07:58:40.340Z,96950.66
2023-03-22T08:00:42.933Z,96954.91
2023-03-22T08:02:46.207Z,96953.00
2023-03-22T08:04:53.161Z,96951.06
2023-03-22T08:06:58.697Z,96955.25
2023-03-22T08:09:01.297Z,96952.06
2023-03-22T08:11:04.187Z,96951.88
2023-03-22T08:13:06.811Z,96953.19
2023-03-22T08:15:10.869Z,96951.47
2023-03-22T08:17:13.688Z,96947.63
2023-03-22T08:19:16.294Z,96956.25
2023-03-22T08:21:20.306Z,96951.91
2023-03-22T08:23:38.515Z,96956.06
2023-03-22T08:25:44.171Z,96952.81
2023-03-22T08:27:47.135Z,96944.22
2023-03-22T08:29:49.733Z,96952.38
2023-03-22T08:31:52.822Z,96950.00
2023-03-22T08:33:58.408Z,96949.06
2023-03-22T08:36:08.082Z,96953.94
2023-03-22T08:38:12.096Z,96950.38
2023-03-22T08:40:15.182Z,96950.16
2023-03-22T08:42:17.792Z,96960.38
2023-03-22T08:44:20.371Z,96953.09
2023-03-22T08:46:23.085Z,96950.06
2023-03-22T08:48:28.993Z,96954.41
2023-03-22T08:50:34.349Z,96949.03
2023-03-22T08:52:37.034Z,96939.03
2023-03-22T08:54:40.978Z,96940.81
2023-03-22T08:56:43.531Z,96942.16
2023-03-22T08:58:48.128Z,96937.97
2023-03-22T09:00:51.226Z,96933.41
2023-03-22T09:02:53.901Z,96928.66
2023-03-22T09:04:56.493Z,96934.91
2023-03-22T09:06:59.133Z,96922.91
2023-03-22T09:09:01.899Z,96918.22
2023-03-22T09:11:08.895Z,96923.56
2023-03-22T09:13:13.350Z,96930.50
2023-03-22T09:15:16.164Z,96914.59
2023-03-22T09:17:21.243Z,96920.16
2023-03-22T09:19:24.581Z,96920.53
2023-03-22T09:21:27.171Z,96918.00
2023-03-22T09:23:30.546Z,96918.25
2023-03-22T09:25:33.201Z,96909.31
2023-03-22T09:27:37.292Z,96918.16
2023-03-22T09:29:39.903Z,96908.31
2023-03-22T09:31:43.409Z,96904.13
2023-03-22T09:33:46.255Z,96909.00
2023-03-22T09:35:48.840Z,96907.16
2023-03-22T09:37:53.267Z,96902.16
2023-03-22T09:39:56.006Z,96899.31
2023-03-22T09:42:01.961Z,96900.94
2023-03-22T09:44:09.164Z,96892.19
2023-03-22T09:46:15.865Z,96890.59
2023-03-22T09:48:23.242Z,96888.63
2023-03-22T09:50:28.854Z,96888.38
2023-03-22T09:52:31.887Z,96894.56
2023-03-22T09:54:36.009Z,96884.34
2023-03-22T09:56:38.646Z,96875.91
2023-03-22T09:58:47.195Z,96872.88
2023-03-22T10:00:56.926Z,96877.94
2023-03-22T10:03:06.261Z,96872.03
2023-03-22T10:05:21.785Z,96871.44
2023-03-22T10:07:30.162Z,96877.56
2023-03-22T10:09:43.083Z,96864.44
2023-03-22T10:11:47.959Z,96866.28
2023-03-22T10:13:58.448Z,96861.06
2023-03-22T10:16:04.473Z,96862.97
2023-03-22T10:18:12.503Z,96852.34
2023-03-22T10:20:29.678Z,96857.59
2023-03-22T10:22:36.312Z,96858.88
2023-03-22T10:24:42.671Z,96844.91
2023-03-22T10:26:47.787Z,96839.66
2023-03-22T10:28:59.369Z,96832.09
2023-03-22T10:31:05.753Z,96836.28
2023-03-22T10:33:14.888Z,96825.34
2023-03-22T10:35:18.057Z,96828.25
2023-03-22T10:37:24.821Z,96824.91
2023-03-22T10:39:32.449Z,96833.31
2023-03-22T10:41:35.591Z,96832.78
2023-03-22T10:43:39.998Z,96828.72
2023-03-22T10:45:44.108Z,96826.13
2023-03-22T10:47:54.193Z,96821.34
2023-03-22T10:49:58.334Z,96833.88
2023-03-22T10:52:05.674Z,96817.22
2023-03-22T10:54:14.409Z,96824.44
2023-03-22T10:56:20.024Z,96819.84
2023-03-22T10:58:27.123Z,96822.25
2023-03-22T11:00:29.777Z,96814.13
2023-03-22T11:02:33.645Z,96810.28
2023-03-22T11:04:38.381Z,96804.34
2023-03-22T11:06:49.855Z,96804.66
2023-03-22T11:08:54.532Z,96799.66
2023-03-22T11:11:00.265Z,96800.53
2023-03-22T11:13:18.484Z,96806.44
2023-03-22T11:15:27.889Z,96812.75
2023-03-22T11:17:33.026Z,96802.09
2023-03-22T11:19:39.156Z,96798.66
2023-03-22T11:21:43.290Z,96809.38
2023-03-22T11:23:55.009Z,96805.59
2023-03-22T11:26:01.028Z,96809.22
2023-03-22T11:28:10.961Z,96796.69
2023-03-22T11:30:21.062Z,96798.50
2023-03-22T11:32:28.869Z,96790.19
2023-03-22T11:34:32.174Z,96785.53
2023-03-22T11:36:45.296Z,96790.03
2023-03-22T11:38:48.943Z,96792.88
2023-03-22T11:40:56.584Z,96795.44
2023-03-22T11:43:16.594Z,96781.38
2023-03-22T11:45:25.167Z,96778.22
2023-03-22T11:47:33.837Z,96775.28
2023-03-22T11:49:41.544Z,96781.19
2023-03-22T11:51:46.472Z,96764.97
2023-03-22T11:53:49.906Z,96776.25
2023-03-22T11:55:58.044Z,96767.47
2023-03-22T11:58:00.614Z,96766.28
2023-03-22T12:00:11.335Z,96758.41
2023-03-22T12:02:21.070Z,96752.41
2023-03-22T12:04:27.816Z,96758.81
2023-03-22T12:06:34.437Z,96751.56
2023-03-22T12:08:43.935Z,96742.06
2023-03-22T12:10:52.597Z,96734.50
2023-03-22T12:12:59.493Z,96740.50
2023-03-22T12:15:05.840Z,96736.00
2023-03-22T12:17:16.724Z,96738.00
2023-03-22T12:19:29.468Z,96735.03
2023-03-22T12:21:33.759Z,96734.72
2023-03-22T12:23:36.909Z,96735.13
2023-03-22T12:25:43.625Z,96726.00
2023-03-22T12:27:49.286Z,96726.41
2023-03-22T12:29:57.676Z,96723.59
2023-03-22T12:32:07.121Z,96727.38
2023-03-22T12:34:15.799Z,96728.13
2023-03-22T12:36:21.693Z,96727.91
2023-03-22T12:38:34.044Z,96722.63
2023-03-22T12:40:40.635Z,96721.88
2023-03-22T12:42:56.633Z,96733.72
2023-03-22T12:45:06.013Z,96716.53
2023-03-22T12:47:18.924Z,96724.66
2023-03-22T12:49:28.140Z,96723.59
2023-03-22T12:51:30.715Z,96724.19
2023-03-22T12:53:42.280Z,96720.03
2023-03-22T12:55:46.875Z,96710.59
2023-03-22T12:57:54.389Z,96714.00
2023-03-22T13:00:00.381Z,96712.59
2023-03-22T13:02:12.723Z,96706.00
2023-03-22T13:04:32.261Z,96709.25
2023-03-22T13:06:56.758Z,96695.78
2023-03-22T13:09:15.639Z,96699.38
2023-03-22T13:11:25.232Z,96689.56
2023-03-22T13:13:42.285Z,96685.19
2023-03-22T13:16:00.690Z,96687.63
2023-03-22T13:18:03.394Z,96697.81
2023-03-22T13:20:31.178Z,96690.31
2023-03-22T13:23:05.282Z,96684.84
2023-03-22T13:25:17.088Z,96687.47
2023-03-22T13:27:20.102Z,96682.44
2023-03-22T13:29:26.396Z,96682.72
2023-03-22T13:31:38.458Z,96676.13
2023-03-22T13:33:44.739Z,96682.22
2023-03-22T13:35:51.255Z,96680.56
2023-03-22T13:37:54.831Z,96667.53
2023-03-22T13:40:02.006Z,96669.50
2023-03-22T13:42:10.334Z,96666.59
2023-03-22T13:44:30.465Z,96666.78
2023-03-22T13:46:50.630Z,96673.25
2023-03-22T13:49:00.337Z,96664.28
2023-03-22T13:51:12.015Z,96663.81
2023-03-22T13:53:21.425Z,96662.00
2023-03-22T13:55:41.528Z,96654.53
2023-03-22T13:57:58.869Z,96657.72
2023-03-22T14:00:14.802Z,96650.56
2023-03-22T14:02:26.106Z,96637.25
2023-03-22T14:04:34.914Z,96644.63
2023-03-22T14:06:46.081Z,96650.84
2023-03-22T14:08:52.475Z,96648.81
2023-03-22T14:11:01.090Z,96642.75
2023-03-22T14:13:07.219Z,96641.41
2023-03-22T14:15:17.464Z,96651.69
2023-03-22T14:17:31.188Z,96651.53
2023-03-22T14:19:35.844Z,96639.38
2023-03-22T14:21:40.785Z,96634.28
